createdAt,value
2018-05-08T00:01:19.816Z,51.20
2018-05-08T00:03:46.266Z,52.10
2018-05-08T00:06:12.515Z,52.40
2018-05-08T00:08:40.123Z,53.50
2018-05-08T00:11:06.345Z,53.50
2018-05-08T00:13:33.282Z,55.10
2018-05-08T00:16:00.260Z,55.10
2018-05-08T00:18:27.093Z,55.00
2018-05-08T00:20:53.297Z,55.60
2018-05-08T00:23:19.586Z,55.80
2018-05-08T00:25:47.351Z,56.30
2018-05-08T00:28:13.607Z,56.40
2018-05-08T00:30:40.576Z,57.40
2018-05-08T00:33:06.819Z,57.10
2018-05-08T00:35:33.043Z,57.30
2018-05-08T00:37:59.287Z,58.00
2018-05-08T00:40:25.516Z,58.70
2018-05-08T00:42:51.737Z,58.80
2018-05-08T00:45:17.954Z,58.70
2018-05-08T00:47:44.161Z,58.80
2018-05-08T00:50:11.115Z,56.80
2018-05-08T00:52:38.076Z,57.90
2018-05-08T00:55:10.536Z,57.90
2018-05-08T00:57:36.773Z,58.50
2018-05-08T01:00:03.020Z,58.60
2018-05-08T01:02:31.413Z,58.70
2018-05-08T01:04:57.665Z,58.80
2018-05-08T01:07:28.192Z,60.00
2018-05-08T01:09:55.603Z,60.60
2018-05-08T01:12:21.877Z,60.70
2018-05-08T01:14:48.089Z,60.40
2018-05-08T01:17:14.319Z,61.00
2018-05-08T01:19:40.566Z,60.90
2018-05-08T01:22:07.620Z,61.00
2018-05-08T01:24:34.578Z,61.30
2018-05-08T01:27:07.575Z,62.20
2018-05-08T01:29:33.793Z,62.20
2018-05-08T01:32:00.061Z,61.90
2018-05-08T01:34:27.110Z,58.70
2018-05-08T01:36:55.369Z,61.10
2018-05-08T01:39:21.637Z,61.10
2018-05-08T01:41:49.163Z,61.90
2018-05-08T01:44:15.450Z,61.90
2018-05-08T01:46:42.428Z,62.90
2018-05-08T01:49:08.668Z,63.60
2018-05-08T01:51:35.093Z,63.00
2018-05-08T01:54:06.784Z,63.50
2018-05-08T01:56:34.856Z,63.60
2018-05-08T01:59:01.136Z,63.50
2018-05-08T02:01:28.683Z,61.80
2018-05-08T02:03:54.890Z,61.80
2018-05-08T02:06:21.921Z,61.10
2018-05-08T02:08:48.863Z,63.10
2018-05-08T02:11:15.842Z,63.40
2018-05-08T02:13:42.100Z,63.30
2018-05-08T02:16:08.395Z,63.50
2018-05-08T02:18:34.660Z,63.70
2018-05-08T02:21:07.093Z,63.40
2018-05-08T02:23:33.345Z,64.20
2018-05-08T02:25:59.869Z,62.60
2018-05-08T02:28:26.004Z,63.70
2018-05-08T02:30:52.224Z,63.80
2018-05-08T02:33:26.140Z,64.70
2018-05-08T02:35:52.338Z,64.60
2018-05-08T02:38:19.289Z,65.50
2018-05-08T02:40:45.546Z,65.40
2018-05-08T02:43:11.810Z,65.30
2018-05-08T02:45:39.160Z,67.50
2018-05-08T02:48:11.556Z,67.30
2018-05-08T02:53:37.148Z,67.50
2018-05-08T02:56:03.657Z,67.00
2018-05-08T02:58:29.872Z,67.60
2018-05-08T03:00:56.838Z,67.20
2018-05-08T03:03:29.257Z,67.10
2018-05-08T03:05:55.490Z,67.90
2018-05-08T03:08:22.456Z,67.80
2018-05-08T03:10:48.751Z,67.70
2018-05-08T03:13:15.000Z,67.90
2018-05-08T03:15:41.232Z,68.90
2018-05-08T03:18:07.441Z,68.50
2018-05-08T03:20:33.639Z,69.50
2018-05-08T03:23:05.910Z,68.60
2018-05-08T03:25:38.168Z,68.90
2018-05-08T03:28:10.624Z,69.40
2018-05-08T03:33:15.475Z,69.40
2018-05-08T03:35:41.732Z,69.30
2018-05-08T03:38:07.994Z,69.60
2018-05-08T03:40:34.967Z,70.20
2018-05-08T03:43:01.199Z,70.00
2018-05-08T03:45:27.438Z,70.50
2018-05-08T03:47:54.585Z,70.30
2018-05-08T03:50:20.906Z,70.30
2018-05-08T03:53:05.094Z,70.60
2018-05-08T03:55:31.320Z,70.90
2018-05-08T03:57:57.596Z,70.50
2018-05-08T04:00:40.036Z,70.60
2018-05-08T04:03:18.491Z,70.80
2018-05-08T04:05:54.990Z,70.70
2018-05-08T04:08:36.174Z,71.20
2018-05-08T04:11:02.394Z,71.80
2018-05-08T04:13:29.413Z,71.70
2018-05-08T04:16:01.743Z,71.70
2018-05-08T04:18:28.110Z,71.80
2018-05-08T04:20:55.340Z,72.10
2018-05-08T04:23:23.292Z,72.50
2018-05-08T04:25:49.547Z,72.40
2018-05-08T04:28:21.981Z,73.30
2018-05-08T04:30:48.225Z,72.80
2018-05-08T04:33:14.434Z,73.00
2018-05-08T04:35:40.891Z,73.70
2018-05-08T04:38:14.045Z,74.10
2018-05-08T04:40:55.970Z,73.40
2018-05-08T04:43:22.753Z,73.50
2018-05-08T04:45:48.949Z,73.10
2018-05-08T04:48:21.255Z,73.30
2018-05-08T04:50:47.493Z,72.90
2018-05-08T04:53:13.728Z,72.10
2018-05-08T04:55:40.696Z,70.30
2018-05-08T04:58:13.283Z,70.80
2018-05-08T05:00:39.521Z,70.60
2018-05-08T05:03:06.537Z,69.80
2018-05-08T05:05:33.067Z,69.80
2018-05-08T05:08:00.326Z,67.70
2018-05-08T05:10:28.723Z,69.70
2018-05-08T05:12:54.957Z,69.50
2018-05-08T05:15:21.164Z,65.20
2018-05-08T05:17:47.422Z,64.20
2018-05-08T05:20:13.654Z,62.70
2018-05-08T05:22:40.193Z,66.00
2018-05-08T05:25:07.229Z,62.60
2018-05-08T05:27:33.469Z,62.50
2018-05-08T05:29:59.716Z,63.30
2018-05-08T05:32:25.940Z,59.60
2018-05-08T05:34:52.180Z,61.70
2018-05-08T05:37:19.118Z,57.20
2018-05-08T05:39:45.337Z,57.20
2018-05-08T05:42:11.566Z,56.20
2018-05-08T05:44:37.820Z,55.70
2018-05-08T05:47:04.780Z,55.30
2018-05-08T05:49:31.704Z,55.40
2018-05-08T05:51:58.672Z,55.50
2018-05-08T05:54:25.620Z,54.50
2018-05-08T05:56:51.837Z,54.40
2018-05-08T05:59:18.784Z,54.20
2018-05-08T06:01:45.061Z,54.20
2018-05-08T06:04:11.493Z,55.40
2018-05-08T06:06:37.723Z,54.70
2018-05-08T06:09:05.455Z,52.70
2018-05-08T06:11:31.693Z,52.60
2018-05-08T06:13:58.058Z,52.10
2018-05-08T06:16:25.053Z,52.10
2018-05-08T06:18:51.401Z,52.10
2018-05-08T06:21:17.700Z,52.30
2018-05-08T06:23:44.009Z,52.80
2018-05-08T06:26:10.308Z,52.40
2018-05-08T06:28:36.569Z,52.40
2018-05-08T06:31:02.799Z,51.80
2018-05-08T06:33:29.783Z,51.70
2018-05-08T06:35:56.031Z,51.60
2018-05-08T06:38:22.355Z,51.40
2018-05-08T06:40:48.841Z,52.60
2018-05-08T06:43:15.088Z,51.20
2018-05-08T06:45:41.353Z,50.80
2018-05-08T06:48:07.556Z,50.30
2018-05-08T06:50:33.788Z,50.50
2018-05-08T06:53:00.040Z,49.50
2018-05-08T06:55:26.247Z,48.70
2018-05-08T06:57:52.524Z,47.80
2018-05-08T07:00:18.850Z,45.20
2018-05-08T07:02:45.792Z,35.80
2018-05-08T07:05:11.992Z,35.70
2018-05-08T07:07:38.298Z,32.30
2018-05-08T07:10:04.509Z,30.10
2018-05-08T07:12:30.804Z,28.90
2018-05-08T07:14:57.035Z,26.80
2018-05-08T07:17:23.273Z,26.70
2018-05-08T07:19:50.568Z,26.20
2018-05-08T07:22:18.276Z,24.50
2018-05-08T07:24:44.429Z,24.40
2018-05-08T07:27:10.649Z,23.60
2018-05-08T07:29:36.872Z,23.10
2018-05-08T07:32:03.837Z,22.10
2018-05-08T07:34:30.784Z,22.00
2018-05-08T07:36:57.063Z,22.00
2018-05-08T07:39:23.279Z,22.60
2018-05-08T07:41:49.525Z,22.50
2018-05-08T07:44:15.893Z,23.20
2018-05-08T07:46:42.122Z,22.90
2018-05-08T07:49:08.341Z,23.10
2018-05-08T07:51:35.315Z,22.30
2018-05-08T07:54:01.755Z,22.30
2018-05-08T07:56:28.844Z,23.50
2018-05-08T07:58:55.335Z,23.50
2018-05-08T08:01:21.571Z,22.70
2018-05-08T08:03:47.994Z,22.70
2018-05-08T08:06:14.355Z,23.30
2018-05-08T08:08:40.730Z,22.60
2018-05-08T08:11:07.112Z,22.30
2018-05-08T08:13:33.427Z,22.60
2018-05-08T08:15:59.669Z,22.20
2018-05-08T08:18:26.159Z,20.80
2018-05-08T08:20:52.540Z,21.80
2018-05-08T08:23:18.982Z,20.70
2018-05-08T08:25:46.735Z,20.30
2018-05-08T08:28:13.268Z,20.80
2018-05-08T08:30:39.551Z,21.70
2018-05-08T08:33:05.837Z,20.40
2018-05-08T08:35:32.846Z,20.70
2018-05-08T08:37:59.064Z,20.60
2018-05-08T08:40:25.352Z,20.70
2018-05-08T08:42:52.308Z,21.10
2018-05-08T08:45:18.576Z,21.10
2018-05-08T08:47:44.838Z,20.20
2018-05-08T08:50:11.189Z,20.80
2018-05-08T08:52:38.311Z,20.70
2018-05-08T08:55:04.573Z,20.60
2018-05-08T08:57:30.918Z,20.30
2018-05-08T08:59:57.228Z,20.10
2018-05-08T09:02:24.248Z,20.70
2018-05-08T09:04:50.503Z,20.70
2018-05-08T09:07:18.840Z,20.70
2018-05-08T09:09:45.216Z,20.80
2018-05-08T09:12:13.079Z,19.90
2018-05-08T09:14:40.016Z,19.80
2018-05-08T09:17:07.269Z,20.50
2018-05-08T09:19:33.605Z,20.40
2018-05-08T09:22:00.610Z,22.00
2018-05-08T09:24:26.848Z,21.90
2018-05-08T09:26:53.180Z,21.50
2018-05-08T09:29:19.434Z,21.80
2018-05-08T09:31:46.646Z,20.90
2018-05-08T09:34:13.913Z,20.90
2018-05-08T09:36:40.147Z,21.00
2018-05-08T09:39:06.391Z,20.40
2018-05-08T09:41:33.400Z,20.30
2018-05-08T09:43:59.961Z,20.00
2018-05-08T09:46:26.223Z,21.40
2018-05-08T09:48:52.519Z,21.00
2018-05-08T09:51:19.554Z,22.00
2018-05-08T09:53:45.752Z,21.90
2018-05-08T09:56:11.984Z,20.60
2018-05-08T09:58:38.203Z,20.50
2018-05-08T10:01:04.494Z,19.60
2018-05-08T10:03:31.510Z,20.00
2018-05-08T10:05:57.994Z,19.90
2018-05-08T10:08:24.601Z,19.40
2018-05-08T10:10:51.024Z,19.00
2018-05-08T10:13:21.233Z,20.60
2018-05-08T10:15:48.265Z,19.50
2018-05-08T10:18:15.316Z,18.80
2018-05-08T10:20:41.539Z,18.80
2018-05-08T10:23:07.778Z,19.30
2018-05-08T10:25:34.017Z,19.40
2018-05-08T10:28:00.289Z,19.90
2018-05-08T10:30:26.563Z,20.10
2018-05-08T10:32:54.934Z,21.90
2018-05-08T10:35:21.162Z,21.90
2018-05-08T10:37:47.422Z,21.00
2018-05-08T10:40:14.444Z,22.00
2018-05-08T10:42:40.700Z,21.90
2018-05-08T10:45:07.654Z,21.40
2018-05-08T10:47:34.670Z,22.50
2018-05-08T10:50:00.989Z,22.40
2018-05-08T10:52:27.464Z,22.50
2018-05-08T10:54:53.746Z,22.50
2018-05-08T10:57:19.960Z,21.20
2018-05-08T10:59:46.164Z,21.30
2018-05-08T11:02:12.375Z,20.90
2018-05-08T11:04:39.340Z,21.60
2018-05-08T11:07:05.604Z,22.10
2018-05-08T11:09:31.815Z,22.00
2018-05-08T11:11:58.833Z,22.50
2018-05-08T11:14:25.061Z,22.40
2018-05-08T11:16:52.023Z,22.60
2018-05-08T11:19:18.258Z,22.60
2018-05-08T11:21:44.507Z,23.50
2018-05-08T11:24:10.851Z,24.30
2018-05-08T11:26:37.135Z,24.60
2018-05-08T11:29:03.552Z,24.50
2018-05-08T11:31:29.781Z,25.60
2018-05-08T11:33:56.042Z,25.10
2018-05-08T11:36:22.284Z,24.50
2018-05-08T11:38:48.520Z,24.80
2018-05-08T11:41:14.740Z,24.60
2018-05-08T11:43:40.975Z,23.10
2018-05-08T11:46:07.192Z,23.00
2018-05-08T11:48:33.413Z,23.90
2018-05-08T11:50:59.644Z,23.60
2018-05-08T11:53:25.913Z,22.70
2018-05-08T11:55:52.871Z,24.10
2018-05-08T11:58:19.090Z,24.10
2018-05-08T12:00:46.086Z,24.00
2018-05-08T12:03:12.293Z,24.00
2018-05-08T12:05:38.536Z,23.80
2018-05-08T12:08:04.788Z,24.10
2018-05-08T12:10:31.006Z,23.60
2018-05-08T12:12:57.252Z,24.00
2018-05-08T12:15:23.512Z,24.90
2018-05-08T12:17:49.832Z,24.60
2018-05-08T12:20:17.094Z,24.20
2018-05-08T12:22:43.425Z,24.20
2018-05-08T12:25:09.645Z,24.10
2018-05-08T12:27:36.602Z,24.20
2018-05-08T12:30:02.856Z,24.10
2018-05-08T12:32:29.084Z,25.50
2018-05-08T12:34:55.308Z,25.10
2018-05-08T12:37:21.526Z,26.30
2018-05-08T12:39:47.992Z,25.60
2018-05-08T12:42:14.313Z,25.50
2018-05-08T12:44:40.602Z,24.20
2018-05-08T12:47:06.821Z,24.10
2018-05-08T12:49:33.089Z,22.50
2018-05-08T12:51:59.333Z,23.10
2018-05-08T12:54:25.548Z,22.90
2018-05-08T12:56:51.949Z,23.50
2018-05-08T12:59:18.992Z,24.40
2018-05-08T13:01:45.244Z,24.40
2018-05-08T13:04:11.481Z,24.80
2018-05-08T13:06:37.709Z,24.80
2018-05-08T13:09:04.851Z,25.00
2018-05-08T13:11:31.081Z,25.40
2018-05-08T13:13:57.303Z,25.40
2018-05-08T13:16:23.576Z,26.20
2018-05-08T13:18:49.846Z,24.60
2018-05-08T13:21:16.140Z,24.70
2018-05-08T13:23:42.356Z,25.80
2018-05-08T13:26:08.819Z,27.00
2018-05-08T13:28:35.070Z,27.50
2018-05-08T13:31:01.334Z,26.00
2018-05-08T13:33:28.297Z,25.70
2018-05-08T13:35:55.293Z,26.10
2018-05-08T13:38:21.534Z,26.10
2018-05-08T13:40:47.747Z,25.40
2018-05-08T13:43:13.961Z,25.60
2018-05-08T13:45:40.164Z,25.80
2018-05-08T13:48:06.456Z,27.70
2018-05-08T13:50:32.675Z,27.60
2018-05-08T13:52:58.934Z,26.80
2018-05-08T13:55:25.572Z,26.40
2018-05-08T13:57:51.803Z,26.20
2018-05-08T14:00:18.067Z,26.10
2018-05-08T14:02:44.319Z,25.10
2018-05-08T14:05:10.880Z,24.80
2018-05-08T14:07:37.283Z,26.50
2018-05-08T14:10:04.105Z,25.50
2018-05-08T14:12:31.037Z,25.70
2018-05-08T14:14:59.529Z,25.60
2018-05-08T14:17:26.264Z,25.60
2018-05-08T14:19:52.543Z,26.40
2018-05-08T14:22:19.703Z,25.40
2018-05-08T14:24:46.240Z,25.30
2018-05-08T14:27:12.820Z,26.70
2018-05-08T14:29:39.511Z,25.60
2018-05-08T14:32:09.326Z,26.50
2018-05-08T14:34:35.881Z,26.00
2018-05-08T14:37:03.345Z,26.10
2018-05-08T14:39:29.552Z,26.10
2018-05-08T14:41:56.752Z,25.70
2018-05-08T14:44:23.037Z,25.60
2018-05-08T14:46:49.312Z,26.20
2018-05-08T14:49:15.766Z,24.90
2018-05-08T14:51:41.878Z,25.90
2018-05-08T14:54:08.135Z,25.50
2018-05-08T14:56:34.417Z,25.50
2018-05-08T14:59:00.703Z,26.60
2018-05-08T15:01:26.976Z,26.70
2018-05-08T15:03:53.545Z,24.10
2018-05-08T15:06:19.820Z,24.30
2018-05-08T15:08:46.945Z,28.30
2018-05-08T15:11:13.237Z,28.30
2018-05-08T15:13:39.916Z,28.30
2018-05-08T15:16:06.350Z,28.40
2018-05-08T15:18:35.024Z,26.50
2018-05-08T15:21:01.675Z,26.50
2018-05-08T15:23:29.214Z,27.50
2018-05-08T15:25:55.992Z,26.60
2018-05-08T15:28:22.468Z,26.40
2018-05-08T15:30:48.825Z,26.50
2018-05-08T15:33:15.148Z,26.40
2018-05-08T15:35:41.671Z,26.80
2018-05-08T15:38:08.093Z,26.00
2018-05-08T15:40:34.289Z,26.00
2018-05-08T15:43:00.623Z,26.40
2018-05-08T15:45:26.944Z,26.40
2018-05-08T15:47:53.481Z,26.40
2018-05-08T15:50:20.843Z,26.00
2018-05-08T15:52:47.264Z,25.90
2018-05-08T15:55:13.611Z,25.60
2018-05-08T15:57:41.216Z,27.10
2018-05-08T16:00:07.816Z,28.20
2018-05-08T16:02:34.098Z,27.50
2018-05-08T16:05:01.077Z,26.60
2018-05-08T16:07:27.406Z,26.50
2018-05-08T16:09:54.688Z,27.20
2018-05-08T16:12:21.049Z,25.90
2018-05-08T16:14:47.398Z,26.70
2018-05-08T16:17:14.507Z,25.80
2018-05-08T16:19:40.941Z,25.80
2018-05-08T16:22:07.549Z,25.30
2018-05-08T16:24:33.945Z,25.50
2018-05-08T16:27:00.233Z,25.70
2018-05-08T16:29:26.595Z,26.00
2018-05-08T16:31:53.715Z,26.70
2018-05-08T16:34:20.778Z,26.70
2018-05-08T16:36:47.832Z,26.10
2018-05-08T16:39:14.146Z,26.00
2018-05-08T16:41:40.413Z,27.70
2018-05-08T16:44:06.711Z,27.00
2018-05-08T16:46:33.088Z,27.20
2018-05-08T16:49:00.166Z,28.40
2018-05-08T16:51:26.463Z,28.30
2018-05-08T16:53:52.845Z,28.20
2018-05-08T16:56:19.057Z,27.20
2018-05-08T16:58:45.307Z,27.20
2018-05-08T17:01:12.535Z,28.80
2018-05-08T17:03:39.364Z,28.80
2018-05-08T17:06:05.835Z,28.30
2018-05-08T17:08:32.275Z,28.20
2018-05-08T17:10:58.972Z,28.90
2018-05-08T17:13:25.297Z,27.60
2018-05-08T17:15:51.732Z,28.60
2018-05-08T17:18:18.063Z,28.90
2018-05-08T17:20:45.155Z,29.10
2018-05-08T17:23:12.305Z,28.20
2018-05-08T17:25:39.412Z,28.80
2018-05-08T17:28:05.617Z,28.50
2018-05-08T17:30:32.035Z,28.90
2018-05-08T17:32:58.311Z,29.30
2018-05-08T17:35:24.536Z,29.50
2018-05-08T17:37:50.969Z,28.90
2018-05-08T17:40:17.398Z,29.60
2018-05-08T17:42:43.653Z,29.90
2018-05-08T17:45:10.647Z,29.90
2018-05-08T17:47:36.971Z,29.80
2018-05-08T17:50:04.187Z,29.80
2018-05-08T17:52:30.564Z,29.80
2018-05-08T17:54:56.877Z,31.10
2018-05-08T17:57:23.313Z,29.20
2018-05-08T17:59:50.415Z,31.40
2018-05-08T18:02:16.992Z,31.30
2018-05-08T18:04:43.285Z,29.00
2018-05-08T18:07:09.714Z,29.50
2018-05-08T18:09:36.260Z,31.10
2018-05-08T18:12:03.657Z,33.00
2018-05-08T18:14:30.055Z,35.20
2018-05-08T18:16:56.566Z,33.60
2018-05-08T18:19:23.612Z,33.50
2018-05-08T18:21:49.865Z,33.40
2018-05-08T18:24:16.985Z,37.10
2018-05-08T18:26:43.282Z,36.90
2018-05-08T18:29:09.605Z,37.50
2018-05-08T18:31:37.858Z,38.80
2018-05-08T18:34:04.167Z,36.90
2018-05-08T18:36:30.447Z,37.40
2018-05-08T18:38:58.439Z,40.20
2018-05-08T18:41:24.725Z,40.10
2018-05-08T18:43:50.976Z,37.70
2018-05-08T18:46:17.369Z,40.30
2018-05-08T18:48:43.710Z,39.70
2018-05-08T18:51:09.963Z,39.00
2018-05-08T18:53:36.196Z,40.80
2018-05-08T18:56:03.209Z,40.10
2018-05-08T18:58:29.462Z,40.10
2018-05-08T19:00:55.697Z,40.50
2018-05-08T19:03:22.027Z,39.60
2018-05-08T19:05:49.028Z,39.80
2018-05-08T19:08:16.082Z,40.80
2018-05-08T19:10:42.357Z,40.80
2018-05-08T19:13:08.608Z,39.70
2018-05-08T19:15:40.952Z,40.40
2018-05-08T19:18:07.239Z,40.00
2018-05-08T19:20:33.460Z,42.40
2018-05-08T19:23:00.437Z,41.10
2018-05-08T19:25:26.761Z,41.10
2018-05-08T19:27:53.065Z,41.80
2018-05-08T19:30:26.235Z,40.80
2018-05-08T19:32:52.457Z,40.80
2018-05-08T19:35:25.448Z,41.40
2018-05-08T19:37:57.804Z,41.40
2018-05-08T19:40:24.165Z,41.00
2018-05-08T19:42:51.789Z,42.10
2018-05-08T19:45:18.096Z,43.30
2018-05-08T19:47:44.435Z,42.20
2018-05-08T19:50:10.679Z,43.20
2018-05-08T19:52:37.087Z,43.20
2018-05-08T19:55:03.342Z,43.60
2018-05-08T19:57:29.604Z,44.10
2018-05-08T19:59:56.641Z,45.00
2018-05-08T20:02:22.967Z,44.90
2018-05-08T20:04:49.177Z,44.80
2018-05-08T20:07:15.443Z,44.40
2018-05-08T20:09:42.429Z,45.70
2018-05-08T20:12:09.572Z,45.20
2018-05-08T20:14:35.882Z,45.10
2018-05-08T20:17:07.520Z,45.60
2018-05-08T20:19:34.496Z,44.70
2018-05-08T20:22:01.064Z,44.70
2018-05-08T20:24:27.336Z,46.10
2018-05-08T20:26:53.652Z,46.40
2018-05-08T20:29:20.635Z,47.80
2018-05-08T20:31:46.993Z,47.80
2018-05-08T20:34:13.961Z,48.40
2018-05-08T20:36:42.972Z,47.90
2018-05-08T20:39:09.938Z,47.80
2018-05-08T20:41:36.585Z,47.70
2018-05-08T20:44:02.865Z,48.20
2018-05-08T20:46:29.853Z,48.70
2018-05-08T20:48:56.170Z,48.70
2018-05-08T20:51:23.344Z,48.50
2018-05-08T20:53:49.765Z,48.50
2018-05-08T20:56:16.062Z,49.40
2018-05-08T20:58:43.071Z,48.70
2018-05-08T21:01:09.460Z,48.60
2018-05-08T21:03:35.720Z,50.10
2018-05-08T21:06:02.157Z,46.10
2018-05-08T21:08:28.437Z,48.90
2018-05-08T21:10:54.714Z,48.50
2018-05-08T21:13:21.112Z,47.00
2018-05-08T21:15:47.696Z,47.30
2018-05-08T21:18:14.066Z,44.20
2018-05-08T21:20:40.335Z,45.90
2018-05-08T21:23:06.943Z,43.50
2018-05-08T21:25:33.197Z,45.70
2018-05-08T21:28:05.608Z,44.30
2018-05-08T21:30:37.994Z,45.60
2018-05-08T21:33:05.705Z,43.80
2018-05-08T21:35:31.929Z,43.80
2018-05-08T21:37:58.193Z,45.70
2018-05-08T21:40:25.952Z,42.00
2018-05-08T21:42:52.964Z,42.00
2018-05-08T21:45:19.172Z,42.00
2018-05-08T21:47:45.670Z,42.40
2018-05-08T21:50:12.023Z,41.50
2018-05-08T21:52:39.078Z,41.90
2018-05-08T21:55:05.322Z,41.90
2018-05-08T21:57:31.529Z,42.30
2018-05-08T21:59:57.811Z,41.20
2018-05-08T22:02:24.045Z,41.50
2018-05-08T22:04:50.273Z,45.00
2018-05-08T22:07:16.569Z,45.60
2018-05-08T22:09:42.852Z,45.60
2018-05-08T22:12:09.834Z,44.90
2018-05-08T22:14:36.049Z,44.80
2018-05-08T22:17:02.315Z,42.80
2018-05-08T22:19:28.560Z,45.50
2018-05-08T22:21:55.484Z,44.60
2018-05-08T22:24:21.753Z,45.40
2018-05-08T22:26:48.884Z,47.10
2018-05-08T22:29:15.121Z,47.00
2018-05-08T22:31:41.923Z,45.60
2018-05-08T22:34:08.185Z,47.00
2018-05-08T22:36:34.481Z,47.90
2018-05-08T22:39:00.745Z,47.80
2018-05-08T22:41:26.982Z,47.60
2018-05-08T22:43:53.240Z,48.20
2018-05-08T22:46:26.496Z,48.00
2018-05-08T22:48:52.785Z,46.50
2018-05-08T22:51:19.033Z,46.50
2018-05-08T22:53:45.306Z,47.60
2018-05-08T22:56:11.570Z,46.80
2018-05-08T22:58:37.820Z,45.30
2018-05-08T23:01:04.088Z,43.30
2018-05-08T23:03:30.368Z,43.00
2018-05-08T23:05:56.669Z,42.60
2018-05-08T23:08:22.951Z,42.80
2018-05-08T23:10:49.245Z,42.60
2018-05-08T23:13:15.489Z,42.60
2018-05-08T23:15:41.785Z,42.90
2018-05-08T23:18:08.052Z,43.50
2018-05-08T23:20:34.304Z,43.60
2018-05-08T23:23:01.412Z,44.40
2018-05-08T23:25:27.703Z,44.30
2018-05-08T23:27:53.977Z,44.90
2018-05-08T23:30:20.181Z,44.10
2018-05-08T23:32:46.416Z,44.60
2018-05-08T23:35:12.732Z,44.70
2018-05-08T23:37:39.049Z,45.40
2018-05-08T23:40:05.351Z,45.40
2018-05-08T23:42:31.638Z,45.60
2018-05-08T23:44:57.893Z,46.20
2018-05-08T23:47:24.130Z,47.00
2018-05-08T23:49:51.630Z,46.80
2018-05-08T23:52:18.692Z,48.90
2018-05-08T23:54:44.946Z,48.90
2018-05-08T23:57:11.226Z,47.90
2018-05-08T23:59:37.494Z,49.90
